createdAt,value
2018-05-02T00:00:05.650Z,0
2018-05-02T00:00:46.176Z,0
2018-05-02T00:01:26.704Z,0
2018-05-02T00:02:07.231Z,0
2018-05-02T00:02:47.755Z,0
2018-05-02T00:03:28.284Z,0
2018-05-02T00:04:08.801Z,0
2018-05-02T00:04:49.325Z,0
2018-05-02T00:05:29.856Z,0
2018-05-02T00:06:10.380Z,0
2018-05-02T00:06:50.900Z,0
2018-05-02T00:07:31.425Z,0
2018-05-02T00:08:11.968Z,0
2018-05-02T00:08:52.491Z,0
2018-05-02T00:09:33.018Z,0
2018-05-02T00:10:14.474Z,0
2018-05-02T00:10:54.951Z,0
2018-05-02T00:11:35.480Z,0
2018-05-02T00:12:16.004Z,0
2018-05-02T00:12:56.529Z,0
2018-05-02T00:13:37.066Z,0
2018-05-02T00:14:17.578Z,0
2018-05-02T00:14:58.108Z,0
2018-05-02T00:15:38.633Z,0
2018-05-02T00:16:19.169Z,0
2018-05-02T00:16:59.690Z,0
2018-05-02T00:17:40.224Z,0
2018-05-02T00:18:20.745Z,0
2018-05-02T00:19:01.276Z,0
2018-05-02T00:19:41.801Z,0
2018-05-02T00:20:22.327Z,0
2018-05-02T00:21:03.823Z,0
2018-05-02T00:21:44.347Z,0
2018-05-02T00:22:24.880Z,0
2018-05-02T00:23:05.404Z,0
2018-05-02T00:23:45.914Z,0
2018-05-02T00:24:26.441Z,0
2018-05-02T00:25:06.970Z,0
2018-05-02T00:25:47.495Z,0
2018-05-02T00:26:28.022Z,0
2018-05-02T00:27:08.549Z,0
2018-05-02T00:27:49.079Z,0
2018-05-02T00:28:29.643Z,0
2018-05-02T00:29:10.132Z,0
2018-05-02T00:29:51.597Z,0
2018-05-02T00:30:32.108Z,0
2018-05-02T00:31:12.638Z,0
2018-05-02T00:31:53.160Z,0
2018-05-02T00:32:34.426Z,0
2018-05-02T00:33:14.960Z,0
2018-05-02T00:33:55.578Z,0
2018-05-02T00:34:36.017Z,0
2018-05-02T00:35:16.602Z,0
2018-05-02T00:35:57.072Z,0
2018-05-02T00:36:37.597Z,0
2018-05-02T00:37:18.108Z,0
2018-05-02T00:37:59.632Z,0
2018-05-02T00:38:40.152Z,0
2018-05-02T00:39:20.681Z,0
2018-05-02T00:40:01.206Z,0
2018-05-02T00:40:41.726Z,0
2018-05-02T00:41:23.190Z,0
2018-05-02T00:42:03.713Z,0
2018-05-02T00:42:44.245Z,0
2018-05-02T00:43:25.472Z,0
2018-05-02T00:44:05.837Z,0
2018-05-02T00:44:46.365Z,0
2018-05-02T00:45:26.890Z,0
2018-05-02T00:46:07.421Z,0
2018-05-02T00:46:47.971Z,0
2018-05-02T00:47:28.509Z,0
2018-05-02T00:48:09.010Z,0
2018-05-02T00:48:49.539Z,0
2018-05-02T00:49:30.065Z,0
2018-05-02T00:50:10.593Z,0
2018-05-02T00:50:51.112Z,0
2018-05-02T00:51:31.641Z,0
2018-05-02T00:52:12.162Z,0
2018-05-02T00:52:52.693Z,0
2018-05-02T00:53:33.206Z,0
2018-05-02T00:54:13.728Z,0
2018-05-02T00:54:54.253Z,0
2018-05-02T00:55:34.781Z,0
2018-05-02T00:56:15.298Z,0
2018-05-02T00:56:56.556Z,0
2018-05-02T00:57:37.401Z,0
2018-05-02T00:58:17.924Z,0
2018-05-02T00:58:58.444Z,0
2018-05-02T00:59:38.967Z,0
2018-05-02T01:00:19.496Z,0
2018-05-02T01:01:00.039Z,0
2018-05-02T01:01:40.574Z,0
2018-05-02T01:02:21.098Z,0
2018-05-02T01:03:01.629Z,0
2018-05-02T01:03:42.688Z,0
2018-05-02T01:04:23.208Z,0
2018-05-02T01:05:03.735Z,0
2018-05-02T01:05:44.258Z,0
2018-05-02T01:06:24.783Z,0
2018-05-02T01:07:05.302Z,0
2018-05-02T01:07:46.582Z,0
2018-05-02T01:08:27.092Z,0
2018-05-02T01:09:07.618Z,0
2018-05-02T01:09:48.141Z,0
2018-05-02T01:10:28.660Z,0
2018-05-02T01:11:09.188Z,0
2018-05-02T01:11:49.714Z,0
2018-05-02T01:12:30.240Z,0
2018-05-02T01:13:10.764Z,0
2018-05-02T01:13:51.290Z,0
2018-05-02T01:14:31.805Z,0
2018-05-02T01:15:12.317Z,0
2018-05-02T01:15:52.834Z,0
2018-05-02T01:16:34.268Z,0
2018-05-02T01:17:14.799Z,0
2018-05-02T01:17:55.331Z,0
2018-05-02T01:18:35.849Z,0
2018-05-02T01:19:16.374Z,0
2018-05-02T01:19:57.475Z,0
2018-05-02T01:20:37.407Z,0
2018-05-02T01:21:17.937Z,0
2018-05-02T01:21:58.487Z,0
2018-05-02T01:22:39.055Z,0
2018-05-02T01:23:19.576Z,0
2018-05-02T01:24:00.103Z,0
2018-05-02T01:24:40.631Z,0
2018-05-02T01:25:21.150Z,0
2018-05-02T01:26:01.660Z,0
2018-05-02T01:26:42.180Z,0
2018-05-02T01:27:22.705Z,0
2018-05-02T01:28:04.132Z,0
2018-05-02T01:28:44.664Z,0
2018-05-02T01:29:25.176Z,0
2018-05-02T01:30:06.476Z,0
2018-05-02T01:30:47.006Z,0
2018-05-02T01:31:27.530Z,0
2018-05-02T01:32:08.607Z,0
2018-05-02T01:32:49.119Z,0
2018-05-02T01:33:29.666Z,0
2018-05-02T01:34:10.205Z,0
2018-05-02T01:34:50.729Z,0
2018-05-02T01:35:31.248Z,0
2018-05-02T01:36:11.769Z,0
2018-05-02T01:36:52.283Z,0
2018-05-02T01:37:32.816Z,0
2018-05-02T01:38:13.342Z,0
2018-05-02T01:38:53.863Z,0
2018-05-02T01:39:34.380Z,0
2018-05-02T01:40:14.915Z,0
2018-05-02T01:40:55.437Z,0
2018-05-02T01:41:35.965Z,0
2018-05-02T01:42:16.974Z,0
2018-05-02T01:42:57.536Z,0
2018-05-02T01:43:38.057Z,0
2018-05-02T01:44:18.584Z,0
2018-05-02T01:44:59.109Z,0
2018-05-02T01:45:39.626Z,0
2018-05-02T01:46:20.164Z,0
2018-05-02T01:47:00.665Z,0
2018-05-02T01:47:41.154Z,0
2018-05-02T01:48:21.662Z,0
2018-05-02T01:49:02.172Z,0
2018-05-02T01:49:42.685Z,0
2018-05-02T01:50:23.215Z,0
2018-05-02T01:51:03.732Z,0
2018-05-02T01:51:44.259Z,0
2018-05-02T01:52:24.777Z,0
2018-05-02T01:53:05.302Z,0
2018-05-02T01:53:45.866Z,0
2018-05-02T01:54:26.389Z,0
2018-05-02T01:55:06.915Z,0
2018-05-02T01:55:47.440Z,0
2018-05-02T01:56:27.956Z,0
2018-05-02T01:57:08.477Z,0
2018-05-02T01:57:49.004Z,0
2018-05-02T01:58:30.522Z,0
2018-05-02T01:59:10.047Z,0
2018-05-02T01:59:50.573Z,0
2018-05-02T02:00:31.105Z,0
2018-05-02T02:01:11.639Z,0
2018-05-02T02:01:52.162Z,0
2018-05-02T02:02:32.705Z,0
2018-05-02T02:03:13.225Z,0
2018-05-02T02:03:53.753Z,0
2018-05-02T02:04:34.978Z,0
2018-05-02T02:05:15.482Z,0
2018-05-02T02:05:55.308Z,0
2018-05-02T02:06:35.868Z,0
2018-05-02T02:07:16.396Z,0
2018-05-02T02:07:57.603Z,0
2018-05-02T02:08:38.130Z,0
2018-05-02T02:09:18.689Z,0
2018-05-02T02:09:59.204Z,0
2018-05-02T02:10:39.731Z,0
2018-05-02T02:11:20.271Z,0
2018-05-02T02:12:01.428Z,0
2018-05-02T02:12:41.947Z,0
2018-05-02T02:13:23.218Z,0
2018-05-02T02:14:03.739Z,0
2018-05-02T02:14:44.975Z,0
2018-05-02T02:15:24.788Z,0
2018-05-02T02:16:05.303Z,0
2018-05-02T02:16:45.830Z,0
2018-05-02T02:17:26.355Z,0
2018-05-02T02:18:06.887Z,0
2018-05-02T02:18:47.413Z,0
2018-05-02T02:19:27.948Z,0
2018-05-02T02:20:08.468Z,0
2018-05-02T02:20:50.609Z,0
2018-05-02T02:21:31.125Z,0
2018-05-02T02:22:11.652Z,0
2018-05-02T02:22:52.168Z,0
2018-05-02T02:23:32.694Z,0
2018-05-02T02:24:13.221Z,0
2018-05-02T02:24:53.747Z,0
2018-05-02T02:25:34.279Z,0
2018-05-02T02:26:14.793Z,0
2018-05-02T02:26:55.330Z,0
2018-05-02T02:27:35.864Z,0
2018-05-02T02:28:16.387Z,0
2018-05-02T02:28:56.919Z,0
2018-05-02T02:29:37.448Z,0
2018-05-02T02:30:17.964Z,0
2018-05-02T02:30:58.485Z,0
2018-05-02T02:31:39.974Z,0
2018-05-02T02:32:20.514Z,0
2018-05-02T02:33:01.055Z,0
2018-05-02T02:33:41.583Z,0
2018-05-02T02:34:22.103Z,0
2018-05-02T02:35:02.618Z,0
2018-05-02T02:35:43.152Z,0
2018-05-02T02:36:23.671Z,0
2018-05-02T02:37:04.205Z,0
2018-05-02T02:37:45.696Z,0
2018-05-02T02:38:26.221Z,0
2018-05-02T02:39:06.739Z,0
2018-05-02T02:39:48.141Z,0
2018-05-02T02:40:28.667Z,0
2018-05-02T02:41:09.197Z,0
2018-05-02T02:41:53.484Z,0
2018-05-02T02:42:33.058Z,0
2018-05-02T02:43:13.585Z,0
2018-05-02T02:43:54.982Z,0
2018-05-02T02:44:34.634Z,0
2018-05-02T02:45:15.157Z,0
2018-05-02T02:45:57.608Z,0
2018-05-02T02:46:38.139Z,0
2018-05-02T02:47:18.672Z,0
2018-05-02T02:47:59.199Z,0
2018-05-02T02:48:39.729Z,0
2018-05-02T02:49:20.234Z,0
2018-05-02T02:50:00.754Z,0
2018-05-02T02:50:41.270Z,0
2018-05-02T02:51:21.752Z,0
2018-05-02T02:52:02.235Z,0
2018-05-02T02:52:42.766Z,0
2018-05-02T02:53:23.321Z,0
2018-05-02T02:54:03.831Z,0
2018-05-02T02:54:44.484Z,0
2018-05-02T02:55:25.289Z,0
2018-05-02T02:56:05.951Z,0
2018-05-02T02:56:46.471Z,0
2018-05-02T02:57:26.999Z,0
2018-05-02T02:58:07.514Z,0
2018-05-02T02:58:48.029Z,0
2018-05-02T02:59:28.550Z,0
2018-05-02T03:00:09.067Z,0
2018-05-02T03:00:49.619Z,0
2018-05-02T03:01:30.126Z,0
2018-05-02T03:02:10.620Z,0
2018-05-02T03:02:51.144Z,0
2018-05-02T03:03:31.651Z,0
2018-05-02T03:04:12.157Z,0
2018-05-02T03:04:52.696Z,0
2018-05-02T03:05:33.187Z,0
2018-05-02T03:06:13.675Z,0
2018-05-02T03:06:54.224Z,0
2018-05-02T03:07:34.752Z,0
2018-05-02T03:08:15.252Z,0
2018-05-02T03:08:55.777Z,0
2018-05-02T03:09:36.278Z,0
2018-05-02T03:10:16.796Z,0
2018-05-02T03:10:57.308Z,0
2018-05-02T03:11:37.822Z,0
2018-05-02T03:12:18.347Z,0
2018-05-02T03:12:58.857Z,0
2018-05-02T03:13:40.236Z,0
2018-05-02T03:14:21.624Z,0
2018-05-02T03:15:02.137Z,0
2018-05-02T03:15:42.625Z,0
2018-05-02T03:16:23.118Z,0
2018-05-02T03:17:03.642Z,0
2018-05-02T03:17:44.173Z,0
2018-05-02T03:18:24.680Z,0
2018-05-02T03:19:05.193Z,0
2018-05-02T03:19:45.756Z,0
2018-05-02T03:20:26.232Z,0
2018-05-02T03:21:06.759Z,0
2018-05-02T03:21:47.946Z,0
2018-05-02T03:22:28.381Z,0
2018-05-02T03:23:09.347Z,0
2018-05-02T03:23:49.858Z,0
2018-05-02T03:24:30.549Z,0
2018-05-02T03:25:11.110Z,0
2018-05-02T03:25:51.704Z,0
2018-05-02T03:26:32.351Z,0
2018-05-02T03:27:12.874Z,0
2018-05-02T03:27:53.603Z,0
2018-05-02T03:28:34.158Z,0
2018-05-02T03:29:14.696Z,0
2018-05-02T03:29:55.221Z,0
2018-05-02T03:30:35.743Z,0
2018-05-02T03:31:16.441Z,0
2018-05-02T03:31:57.101Z,0
2018-05-02T03:32:37.635Z,0
2018-05-02T03:33:18.162Z,0
2018-05-02T03:33:58.690Z,0
2018-05-02T03:34:39.757Z,0
2018-05-02T03:35:20.108Z,0
2018-05-02T03:36:00.795Z,0
2018-05-02T03:36:42.055Z,0
2018-05-02T03:37:21.917Z,0
2018-05-02T03:38:02.459Z,0
2018-05-02T03:38:42.993Z,0
2018-05-02T03:39:23.526Z,0
2018-05-02T03:40:04.049Z,0
2018-05-02T03:40:44.576Z,0
2018-05-02T03:41:25.102Z,0
2018-05-02T03:42:05.633Z,0
2018-05-02T03:42:46.155Z,0
2018-05-02T03:43:27.423Z,0
2018-05-02T03:44:07.606Z,0
2018-05-02T03:44:48.093Z,0
2018-05-02T03:45:28.617Z,0
2018-05-02T03:46:09.984Z,0
2018-05-02T03:46:49.727Z,0
2018-05-02T03:47:30.259Z,0
2018-05-02T03:48:10.787Z,0
2018-05-02T03:48:51.986Z,0
2018-05-02T03:49:32.728Z,0
2018-05-02T03:50:13.257Z,0
2018-05-02T03:50:53.777Z,0
2018-05-02T03:51:34.299Z,0
2018-05-02T03:52:14.830Z,0
2018-05-02T03:52:55.380Z,0
2018-05-02T03:53:35.859Z,0
2018-05-02T03:54:16.384Z,0
2018-05-02T03:54:56.902Z,0
2018-05-02T03:55:37.431Z,0
2018-05-02T03:56:17.955Z,0
2018-05-02T03:56:58.475Z,0
2018-05-02T03:57:38.994Z,0
2018-05-02T03:58:19.516Z,0
2018-05-02T03:59:00.039Z,0
2018-05-02T03:59:40.590Z,5
2018-05-02T04:00:21.097Z,5
2018-05-02T04:01:01.627Z,5
2018-05-02T04:01:42.153Z,5
2018-05-02T04:02:22.683Z,5
2018-05-02T04:03:03.215Z,5
2018-05-02T04:03:43.736Z,5
2018-05-02T04:04:24.266Z,5
2018-05-02T04:05:04.798Z,5
2018-05-02T04:05:45.337Z,5
2018-05-02T04:06:26.492Z,5
2018-05-02T04:07:06.372Z,5
2018-05-02T04:07:46.899Z,5
2018-05-02T04:08:27.485Z,5
2018-05-02T04:09:07.957Z,5
2018-05-02T04:09:48.483Z,5
2018-05-02T04:10:29.000Z,10
2018-05-02T04:11:09.527Z,10
2018-05-02T04:11:50.049Z,10
2018-05-02T04:12:30.586Z,10
2018-05-02T04:13:11.116Z,10
2018-05-02T04:13:51.641Z,10
2018-05-02T04:14:32.151Z,10
2018-05-02T04:15:12.676Z,10
2018-05-02T04:15:53.204Z,10
2018-05-02T04:16:33.737Z,10
2018-05-02T04:17:14.257Z,10
2018-05-02T04:17:54.782Z,10
2018-05-02T04:18:35.309Z,10
2018-05-02T04:19:15.841Z,10
2018-05-02T04:19:56.355Z,10
2018-05-02T04:20:36.882Z,10
2018-05-02T04:21:17.438Z,10
2018-05-02T04:21:57.916Z,15
2018-05-02T04:22:38.445Z,15
2018-05-02T04:23:18.970Z,15
2018-05-02T04:23:59.504Z,15
2018-05-02T04:24:40.029Z,15
2018-05-02T04:25:20.550Z,15
2018-05-02T04:26:01.085Z,15
2018-05-02T04:26:41.599Z,15
2018-05-02T04:27:22.129Z,20
2018-05-02T04:28:02.654Z,20
2018-05-02T04:28:43.238Z,20
2018-05-02T04:29:23.704Z,20
2018-05-02T04:30:05.101Z,20
2018-05-02T04:30:45.627Z,20
2018-05-02T04:31:26.153Z,20
2018-05-02T04:32:06.681Z,25
2018-05-02T04:32:47.208Z,25
2018-05-02T04:33:27.740Z,25
2018-05-02T04:34:08.273Z,30
2018-05-02T04:34:48.803Z,35
2018-05-02T04:35:29.335Z,35
2018-05-02T04:36:09.855Z,40
2018-05-02T04:36:50.380Z,45
2018-05-02T04:37:30.908Z,50
2018-05-02T04:38:11.437Z,55
2018-05-02T04:38:51.956Z,55
2018-05-02T04:39:32.489Z,55
2018-05-02T04:40:13.016Z,60
2018-05-02T04:40:53.539Z,65
2018-05-02T04:41:34.061Z,65
2018-05-02T04:42:14.588Z,65
2018-05-02T04:42:55.117Z,65
2018-05-02T04:43:35.645Z,65
2018-05-02T04:44:19.150Z,65
2018-05-02T04:44:59.673Z,60
2018-05-02T04:45:41.009Z,60
2018-05-02T04:46:21.553Z,55
2018-05-02T04:47:02.076Z,55
2018-05-02T04:47:42.603Z,55
2018-05-02T04:48:23.137Z,55
2018-05-02T04:49:03.660Z,55
2018-05-02T04:49:44.189Z,55
2018-05-02T04:50:24.713Z,60
2018-05-02T04:51:05.238Z,65
2018-05-02T04:51:45.753Z,70
2018-05-02T04:52:26.273Z,75
2018-05-02T04:53:07.706Z,85
2018-05-02T04:53:49.559Z,90
2018-05-02T04:54:30.088Z,95
2018-05-02T04:55:10.623Z,95
2018-05-02T04:55:51.144Z,95
2018-05-02T04:56:31.672Z,90
2018-05-02T04:57:12.196Z,90
2018-05-02T04:57:53.389Z,95
2018-05-02T04:58:33.921Z,95
2018-05-02T04:59:14.448Z,95
2018-05-02T04:59:54.971Z,100
2018-05-02T05:00:35.509Z,105
2018-05-02T05:01:16.012Z,110
2018-05-02T05:01:56.539Z,110
2018-05-02T05:02:37.078Z,105
2018-05-02T05:03:18.503Z,105
2018-05-02T05:03:59.028Z,105
2018-05-02T05:04:39.563Z,110
2018-05-02T05:05:20.122Z,105
2018-05-02T05:06:00.621Z,105
2018-05-02T05:06:41.198Z,105
2018-05-02T05:07:21.678Z,105
2018-05-02T05:08:02.199Z,105
2018-05-02T05:08:42.727Z,110
2018-05-02T05:09:23.261Z,110
2018-05-02T05:10:03.784Z,110
2018-05-02T05:10:44.308Z,110
2018-05-02T05:11:24.837Z,105
2018-05-02T05:12:05.364Z,100
2018-05-02T05:12:45.884Z,100
2018-05-02T05:13:26.397Z,95
2018-05-02T05:14:06.916Z,90
2018-05-02T05:14:47.446Z,90
2018-05-02T05:15:27.966Z,80
2018-05-02T05:16:08.495Z,75
2018-05-02T05:16:49.021Z,75
2018-05-02T05:17:29.547Z,70
2018-05-02T05:18:10.072Z,70
2018-05-02T05:18:50.598Z,75
2018-05-02T05:19:31.125Z,85
2018-05-02T05:20:11.638Z,95
2018-05-02T05:20:52.167Z,105
2018-05-02T05:21:32.697Z,115
2018-05-02T05:22:13.227Z,125
2018-05-02T05:22:53.756Z,130
2018-05-02T05:23:34.277Z,130
2018-05-02T05:24:15.494Z,130
2018-05-02T05:24:55.330Z,125
2018-05-02T05:25:35.850Z,115
2018-05-02T05:26:16.382Z,110
2018-05-02T05:26:56.909Z,110
2018-05-02T05:27:37.433Z,115
2018-05-02T05:28:17.967Z,125
2018-05-02T05:28:58.494Z,130
2018-05-02T05:29:39.015Z,135
2018-05-02T05:30:19.542Z,135
2018-05-02T05:31:01.002Z,140
2018-05-02T05:31:40.589Z,140
2018-05-02T05:32:21.103Z,145
2018-05-02T05:33:01.626Z,150
2018-05-02T05:33:42.152Z,160
2018-05-02T05:34:22.680Z,170
2018-05-02T05:35:03.212Z,180
2018-05-02T05:35:43.741Z,195
2018-05-02T05:36:24.275Z,200
2018-05-02T05:37:04.811Z,205
2018-05-02T05:37:45.340Z,215
2018-05-02T05:38:25.864Z,215
2018-05-02T05:39:06.392Z,210
2018-05-02T05:39:46.964Z,210
2018-05-02T05:40:27.485Z,205
2018-05-02T05:41:08.014Z,195
2018-05-02T05:41:48.527Z,185
2018-05-02T05:42:29.062Z,180
2018-05-02T05:43:09.588Z,180
2018-05-02T05:43:50.114Z,170
2018-05-02T05:44:30.643Z,165
2018-05-02T05:45:11.169Z,160
2018-05-02T05:45:51.699Z,160
2018-05-02T05:46:32.230Z,160
2018-05-02T05:47:13.718Z,160
2018-05-02T05:47:54.242Z,165
2018-05-02T05:48:34.773Z,170
2018-05-02T05:49:15.296Z,175
2018-05-02T05:49:55.848Z,185
2018-05-02T05:50:36.379Z,195
2018-05-02T05:51:16.914Z,210
2018-05-02T05:51:57.998Z,220
2018-05-02T05:52:37.945Z,220
2018-05-02T05:53:18.473Z,230
2018-05-02T05:53:59.032Z,235
2018-05-02T05:54:39.551Z,240
2018-05-02T05:55:20.084Z,245
2018-05-02T05:56:00.618Z,255
2018-05-02T05:56:41.139Z,260
2018-05-02T05:57:21.670Z,270
2018-05-02T05:58:02.194Z,270
2018-05-02T05:58:42.727Z,270
2018-05-02T05:59:23.250Z,270
2018-05-02T06:00:03.775Z,265
2018-05-02T06:00:44.358Z,260
2018-05-02T06:01:24.838Z,260
2018-05-02T06:02:05.376Z,250
2018-05-02T06:02:45.892Z,255
2018-05-02T06:03:26.421Z,245
2018-05-02T06:04:06.951Z,245
2018-05-02T06:04:47.475Z,245
2018-05-02T06:05:28.007Z,240
2018-05-02T06:06:08.542Z,235
2018-05-02T06:06:49.183Z,230
2018-05-02T06:07:29.604Z,230
2018-05-02T06:08:10.131Z,225
2018-05-02T06:08:50.658Z,225
2018-05-02T06:09:31.186Z,225
2018-05-02T06:10:11.728Z,230
2018-05-02T06:10:53.007Z,225
2018-05-02T06:11:33.555Z,225
2018-05-02T06:12:14.077Z,225
2018-05-02T06:12:54.613Z,220
2018-05-02T06:13:35.143Z,215
2018-05-02T06:14:15.678Z,210
2018-05-02T06:14:56.205Z,210
2018-05-02T06:15:37.514Z,210
2018-05-02T06:16:17.254Z,210
2018-05-02T06:16:57.782Z,240
2018-05-02T06:17:38.333Z,250
2018-05-02T06:18:18.860Z,255
2018-05-02T06:18:59.373Z,265
2018-05-02T06:19:39.891Z,275
2018-05-02T06:20:20.428Z,285
2018-05-02T06:21:00.961Z,295
2018-05-02T06:21:41.485Z,305
2018-05-02T06:22:22.008Z,315
2018-05-02T06:23:02.529Z,320
2018-05-02T06:23:43.039Z,330
2018-05-02T06:24:23.564Z,325
2018-05-02T06:25:04.103Z,325
2018-05-02T06:25:44.622Z,325
2018-05-02T06:26:25.155Z,320
2018-05-02T06:27:05.685Z,315
2018-05-02T06:27:46.210Z,305
2018-05-02T06:28:26.732Z,300
2018-05-02T06:29:07.259Z,295
2018-05-02T06:29:47.787Z,290
2018-05-02T06:30:28.312Z,285
2018-05-02T06:31:08.838Z,285
2018-05-02T06:31:49.370Z,290
2018-05-02T06:32:29.894Z,295
2018-05-02T06:33:10.416Z,305
2018-05-02T06:33:50.925Z,305
2018-05-02T06:34:31.451Z,310
2018-05-02T06:35:11.969Z,315
2018-05-02T06:35:52.478Z,325
2018-05-02T06:36:33.015Z,335
2018-05-02T06:37:13.537Z,350
2018-05-02T06:37:54.065Z,365
2018-05-02T06:38:34.568Z,385
2018-05-02T06:39:15.094Z,390
2018-05-02T06:39:55.620Z,390
2018-05-02T06:40:36.149Z,375
2018-05-02T06:41:16.675Z,365
2018-05-02T06:41:57.199Z,350
2018-05-02T06:42:37.719Z,350
2018-05-02T06:43:18.242Z,355
2018-05-02T06:43:58.775Z,365
2018-05-02T06:44:39.296Z,380
2018-05-02T06:45:19.817Z,390
2018-05-02T06:46:00.342Z,395
2018-05-02T06:46:40.869Z,405
2018-05-02T06:47:21.388Z,410
2018-05-02T06:48:01.904Z,410
2018-05-02T06:48:42.428Z,420
2018-05-02T06:49:22.947Z,420
2018-05-02T06:50:03.476Z,420
2018-05-02T06:50:44.004Z,415
2018-05-02T06:51:24.540Z,415
2018-05-02T06:52:05.078Z,400
2018-05-02T06:52:45.588Z,395
2018-05-02T06:53:26.112Z,395
2018-05-02T06:54:06.635Z,400
2018-05-02T06:54:47.204Z,410
2018-05-02T06:55:27.682Z,400
2018-05-02T06:56:08.206Z,390
2018-05-02T06:56:48.710Z,390
2018-05-02T06:57:29.230Z,390
2018-05-02T06:58:09.754Z,400
2018-05-02T06:58:50.288Z,415
2018-05-02T06:59:30.800Z,430
2018-05-02T07:00:11.327Z,440
2018-05-02T07:00:51.939Z,450
2018-05-02T07:01:32.386Z,470
2018-05-02T07:02:12.904Z,490
2018-05-02T07:02:53.431Z,530
2018-05-02T07:03:33.960Z,535
2018-05-02T07:04:14.503Z,535
2018-05-02T07:04:54.996Z,520
2018-05-02T07:05:35.501Z,540
2018-05-02T07:06:16.025Z,585
2018-05-02T07:06:56.514Z,615
2018-05-02T07:07:37.035Z,635
2018-05-02T07:08:18.517Z,635
2018-05-02T07:08:58.071Z,615
2018-05-02T07:09:38.592Z,605
2018-05-02T07:10:19.108Z,615
2018-05-02T07:10:59.624Z,655
2018-05-02T07:11:40.872Z,750
2018-05-02T07:12:22.127Z,680
2018-05-02T07:13:02.653Z,680
2018-05-02T07:13:43.174Z,695
2018-05-02T07:14:23.688Z,815
2018-05-02T07:15:04.229Z,850
2018-05-02T07:15:44.771Z,825
2018-05-02T07:16:26.015Z,665
2018-05-02T07:17:05.824Z,680
2018-05-02T07:17:46.340Z,645
2018-05-02T07:18:26.835Z,650
2018-05-02T07:19:07.360Z,675
2018-05-02T07:19:48.471Z,710
2018-05-02T07:20:28.999Z,635
2018-05-02T07:21:09.525Z,650
2018-05-02T07:21:50.044Z,695
2018-05-02T07:22:30.564Z,660
2018-05-02T07:23:11.093Z,710
2018-05-02T07:23:51.619Z,695
2018-05-02T07:24:32.130Z,775
2018-05-02T07:25:12.656Z,825
2018-05-02T07:25:53.174Z,890
2018-05-02T07:26:33.696Z,920
2018-05-02T07:27:14.240Z,915
2018-05-02T07:27:54.748Z,985
2018-05-02T07:28:35.271Z,960
2018-05-02T07:29:16.746Z,945
2018-05-02T07:29:57.287Z,920
2018-05-02T07:30:37.816Z,890
2018-05-02T07:31:18.329Z,880
2018-05-02T07:31:58.856Z,875
2018-05-02T07:32:39.456Z,880
2018-05-02T07:33:19.917Z,895
2018-05-02T07:34:00.442Z,915
2018-05-02T07:34:40.972Z,900
2018-05-02T07:35:21.524Z,875
2018-05-02T07:36:02.017Z,870
2018-05-02T07:36:42.545Z,885
2018-05-02T07:37:23.068Z,930
2018-05-02T07:38:03.599Z,960
2018-05-02T07:38:44.127Z,975
2018-05-02T07:39:24.650Z,1020
2018-05-02T07:40:05.169Z,985
2018-05-02T07:40:45.699Z,925
2018-05-02T07:41:26.231Z,1000
2018-05-02T07:42:06.855Z,1060
2018-05-02T07:42:47.270Z,1060
2018-05-02T07:43:27.804Z,1105
2018-05-02T07:44:08.329Z,1035
2018-05-02T07:44:48.870Z,955
2018-05-02T07:45:29.386Z,865
2018-05-02T07:46:09.939Z,810
2018-05-02T07:46:50.463Z,780
2018-05-02T07:47:30.993Z,785
2018-05-02T07:48:11.528Z,795
2018-05-02T07:48:52.069Z,815
2018-05-02T07:49:32.587Z,795
2018-05-02T07:50:13.106Z,765
2018-05-02T07:50:53.645Z,795
2018-05-02T07:51:34.188Z,750
2018-05-02T07:52:14.690Z,700
2018-05-02T07:52:55.212Z,680
2018-05-02T07:53:35.731Z,675
2018-05-02T07:54:16.254Z,670
2018-05-02T07:54:56.766Z,645
2018-05-02T07:55:37.290Z,655
2018-05-02T07:56:17.829Z,695
2018-05-02T07:56:58.379Z,725
2018-05-02T07:57:39.152Z,715
2018-05-02T07:58:19.671Z,690
2018-05-02T07:59:00.201Z,645
2018-05-02T07:59:40.730Z,665
2018-05-02T08:00:21.266Z,705
2018-05-02T08:01:01.790Z,770
2018-05-02T08:01:42.315Z,800
2018-05-02T08:02:22.840Z,815
2018-05-02T08:03:03.371Z,830
2018-05-02T08:03:43.908Z,805
2018-05-02T08:04:24.440Z,800
2018-05-02T08:05:08.531Z,785
2018-05-02T08:05:48.126Z,745
2018-05-02T08:06:28.649Z,725
2018-05-02T08:07:09.185Z,730
2018-05-02T08:07:51.662Z,745
2018-05-02T08:08:32.189Z,745
2018-05-02T08:09:12.706Z,765
2018-05-02T08:09:53.225Z,770
2018-05-02T08:10:33.741Z,760
2018-05-02T08:11:14.266Z,750
2018-05-02T08:11:54.801Z,715
2018-05-02T08:12:35.322Z,685
2018-05-02T08:13:15.843Z,650
2018-05-02T08:13:56.369Z,635
2018-05-02T08:14:36.907Z,630
2018-05-02T08:15:17.439Z,620
2018-05-02T08:15:57.959Z,615
2018-05-02T08:16:38.498Z,610
2018-05-02T08:17:19.028Z,605
2018-05-02T08:17:59.558Z,610
2018-05-02T08:18:40.757Z,615
2018-05-02T08:19:21.283Z,615
2018-05-02T08:20:01.794Z,620
2018-05-02T08:20:42.322Z,640
2018-05-02T08:21:22.856Z,660
2018-05-02T08:22:03.427Z,675
2018-05-02T08:22:43.917Z,710
2018-05-02T08:23:24.446Z,740
2018-05-02T08:24:04.965Z,755
2018-05-02T08:24:45.491Z,775
2018-05-02T08:25:26.023Z,785
2018-05-02T08:26:06.547Z,790
2018-05-02T08:26:47.076Z,790
2018-05-02T08:27:27.609Z,815
2018-05-02T08:28:08.139Z,815
2018-05-02T08:28:48.667Z,825
2018-05-02T08:29:29.191Z,835
2018-05-02T08:30:09.713Z,830
2018-05-02T08:30:50.238Z,830
2018-05-02T08:31:30.776Z,815
2018-05-02T08:32:11.293Z,795
2018-05-02T08:32:51.924Z,760
2018-05-02T08:33:33.113Z,755
2018-05-02T08:34:13.641Z,725
2018-05-02T08:34:54.165Z,705
2018-05-02T08:35:34.737Z,695
2018-05-02T08:36:15.257Z,685
2018-05-02T08:36:55.781Z,690
2018-05-02T08:37:36.296Z,675
2018-05-02T08:38:16.830Z,670
2018-05-02T08:38:58.060Z,660
2018-05-02T08:39:37.893Z,660
2018-05-02T08:40:18.416Z,670
2018-05-02T08:40:58.942Z,680
2018-05-02T08:41:39.466Z,700
2018-05-02T08:42:21.547Z,720
2018-05-02T08:43:01.138Z,755
2018-05-02T08:43:41.672Z,810
2018-05-02T08:44:22.193Z,845
2018-05-02T08:45:02.724Z,880
2018-05-02T08:45:43.250Z,910
2018-05-02T08:46:23.775Z,955
2018-05-02T08:47:04.301Z,1000
2018-05-02T08:47:44.834Z,1045
2018-05-02T08:48:25.375Z,1100
2018-05-02T08:49:05.886Z,1135
2018-05-02T08:49:46.412Z,1165
2018-05-02T08:50:26.943Z,1225
2018-05-02T08:51:07.468Z,1230
2018-05-02T08:51:47.984Z,1245
2018-05-02T08:52:28.512Z,1250
2018-05-02T08:53:09.046Z,1305
2018-05-02T08:53:49.579Z,1370
2018-05-02T08:54:30.104Z,1435
2018-05-02T08:55:10.622Z,1510
2018-05-02T08:55:51.156Z,1555
2018-05-02T08:56:31.694Z,1635
2018-05-02T08:57:12.195Z,1750
2018-05-02T08:57:53.620Z,1785
2018-05-02T08:58:34.138Z,2025
2018-05-02T08:59:14.649Z,2185
2018-05-02T08:59:55.182Z,2395
2018-05-02T09:00:35.710Z,2965
2018-05-02T09:01:16.253Z,1895
2018-05-02T09:01:56.778Z,2660
2018-05-02T09:02:37.292Z,2330
2018-05-02T09:03:17.818Z,1565
2018-05-02T09:03:58.353Z,1610
2018-05-02T09:04:38.878Z,2070
2018-05-02T09:05:19.394Z,2360
2018-05-02T09:05:59.926Z,1985
2018-05-02T09:06:40.461Z,1695
2018-05-02T09:07:20.998Z,1695
2018-05-02T09:08:01.526Z,1895
2018-05-02T09:08:42.798Z,2230
2018-05-02T09:09:23.332Z,2380
2018-05-02T09:10:03.864Z,2110
2018-05-02T09:10:44.439Z,1635
2018-05-02T09:11:24.922Z,1855
2018-05-02T09:12:05.454Z,1155
2018-05-02T09:12:45.986Z,955
2018-05-02T09:13:26.518Z,915
2018-05-02T09:14:07.048Z,995
2018-05-02T09:14:48.559Z,1055
2018-05-02T09:15:28.205Z,985
2018-05-02T09:16:08.660Z,940
2018-05-02T09:16:49.188Z,915
2018-05-02T09:17:29.719Z,865
2018-05-02T09:18:10.304Z,895
2018-05-02T09:18:50.835Z,1015
2018-05-02T09:19:31.373Z,990
2018-05-02T09:20:11.903Z,1150
2018-05-02T09:20:52.441Z,1320
2018-05-02T09:21:32.967Z,1790
2018-05-02T09:22:13.500Z,2620
2018-05-02T09:22:54.027Z,1380
2018-05-02T09:23:34.565Z,1430
2018-05-02T09:24:15.106Z,1420
2018-05-02T09:24:55.648Z,1080
2018-05-02T09:25:36.185Z,905
2018-05-02T09:26:16.719Z,830
2018-05-02T09:26:57.241Z,805
2018-05-02T09:27:37.775Z,815
2018-05-02T09:28:18.307Z,845
2018-05-02T09:28:58.845Z,820
2018-05-02T09:29:39.364Z,790
2018-05-02T09:30:19.905Z,725
2018-05-02T09:31:00.430Z,675
2018-05-02T09:31:40.950Z,630
2018-05-02T09:32:22.467Z,585
2018-05-02T09:33:03.003Z,560
2018-05-02T09:33:43.536Z,530
2018-05-02T09:34:24.066Z,510
2018-05-02T09:35:04.584Z,490
2018-05-02T09:35:45.177Z,475
2018-05-02T09:36:25.633Z,465